sensor_id;sensor_type;location;lat;lon;timestamp;pressure;altitude;pressure_sealevel;temperature;humidity
55590;BME280;41452;42.780;23.116;2023-07-28T00:01:45;94474.66;;;13.71;79.83
55590;BME280;41452;42.780;23.116;2023-07-28T00:04:11;94477.84;;;13.73;79.99
55590;BME280;41452;42.780;23.116;2023-07-28T00:06:36;94445.19;;;13.57;79.67
55590;BME280;41452;42.780;23.116;2023-07-28T00:09:01;94462.47;;;13.69;79.79
55590;BME280;41452;42.780;23.116;2023-07-28T00:11:27;94473.09;;;13.75;79.63
55590;BME280;41452;42.780;23.116;2023-07-28T00:13:52;94464.88;;;13.71;80.28
55590;BME280;41452;42.780;23.116;2023-07-28T00:16:19;94438.06;;;13.57;79.84
55590;BME280;41452;42.780;23.116;2023-07-28T00:18:45;94465.63;;;13.66;80.45
55590;BME280;41452;42.780;23.116;2023-07-28T00:21:10;94463.47;;;13.63;80.18
55590;BME280;41452;42.780;23.116;2023-07-28T00:23:35;94460.84;;;13.63;80.68
55590;BME280;41452;42.780;23.116;2023-07-28T00:26:01;94464.28;;;13.64;80.48
55590;BME280;41452;42.780;23.116;2023-07-28T00:28:26;94453.72;;;13.64;80.39
55590;BME280;41452;42.780;23.116;2023-07-28T00:30:51;94458.22;;;13.63;80.40
55590;BME280;41452;42.780;23.116;2023-07-28T00:33:19;94459.69;;;13.54;80.48
55590;BME280;41452;42.780;23.116;2023-07-28T00:35:45;94457.78;;;13.49;80.97
55590;BME280;41452;42.780;23.116;2023-07-28T00:38:10;94461.72;;;13.47;81.15
55590;BME280;41452;42.780;23.116;2023-07-28T00:40:36;94461.16;;;13.45;80.75
55590;BME280;41452;42.780;23.116;2023-07-28T00:43:02;94456.28;;;13.37;80.98
55590;BME280;41452;42.780;23.116;2023-07-28T00:45:28;94456.28;;;13.37;81.53
55590;BME280;41452;42.780;23.116;2023-07-28T00:47:55;94449.66;;;13.34;81.52
55590;BME280;41452;42.780;23.116;2023-07-28T00:50:23;94451.09;;;13.42;81.27
55590;BME280;41452;42.780;23.116;2023-07-28T00:52:49;94462.44;;;13.42;81.32
55590;BME280;41452;42.780;23.116;2023-07-28T00:55:14;94440.47;;;13.37;81.49
55590;BME280;41452;42.780;23.116;2023-07-28T00:57:40;94456.13;;;13.43;81.36
55590;BME280;41452;42.780;23.116;2023-07-28T01:00:06;94454.75;;;13.41;81.44
55590;BME280;41452;42.780;23.116;2023-07-28T01:02:31;94452.66;;;13.43;81.48
55590;BME280;41452;42.780;23.116;2023-07-28T01:04:58;94457.16;;;13.42;81.56
55590;BME280;41452;42.780;23.116;2023-07-28T01:07:32;94460.66;;;13.48;80.42
55590;BME280;41452;42.780;23.116;2023-07-28T01:12:28;94456.66;;;13.45;81.00
55590;BME280;41452;42.780;23.116;2023-07-28T01:14:54;94447.47;;;13.48;81.40
55590;BME280;41452;42.780;23.116;2023-07-28T01:17:19;94449.69;;;13.56;80.96
55590;BME280;41452;42.780;23.116;2023-07-28T01:19:45;94454.53;;;13.64;80.88
55590;BME280;41452;42.780;23.116;2023-07-28T01:25:06;94453.25;;;13.45;80.79
55590;BME280;41452;42.780;23.116;2023-07-28T01:27:39;94427.13;;;13.26;80.94
55590;BME280;41452;42.780;23.116;2023-07-28T01:30:08;94443.78;;;13.49;80.72
55590;BME280;41452;42.780;23.116;2023-07-28T01:32:35;94436.34;;;13.46;80.28
55590;BME280;41452;42.780;23.116;2023-07-28T01:35:02;94433.47;;;13.47;80.24
55590;BME280;41452;42.780;23.116;2023-07-28T01:37:28;94444.66;;;13.55;80.48
55590;BME280;41452;42.780;23.116;2023-07-28T01:39:53;94452.97;;;13.46;81.06
55590;BME280;41452;42.780;23.116;2023-07-28T01:42:20;94439.00;;;13.46;81.01
55590;BME280;41452;42.780;23.116;2023-07-28T01:44:45;94452.66;;;13.43;81.41
55590;BME280;41452;42.780;23.116;2023-07-28T01:47:11;94427.75;;;13.34;81.13
55590;BME280;41452;42.780;23.116;2023-07-28T01:49:36;94451.41;;;13.45;80.89
55590;BME280;41452;42.780;23.116;2023-07-28T01:52:02;94449.00;;;13.44;80.63
55590;BME280;41452;42.780;23.116;2023-07-28T01:54:27;94450.53;;;13.40;80.38
55590;BME280;41452;42.780;23.116;2023-07-28T01:56:52;94443.44;;;13.23;81.30
55590;BME280;41452;42.780;23.116;2023-07-28T01:59:18;94451.59;;;13.22;81.44
55590;BME280;41452;42.780;23.116;2023-07-28T02:01:44;94454.16;;;13.17;81.67
55590;BME280;41452;42.780;23.116;2023-07-28T02:04:09;94453.50;;;13.26;81.71
55590;BME280;41452;42.780;23.116;2023-07-28T02:06:35;94457.50;;;13.29;81.55
55590;BME280;41452;42.780;23.116;2023-07-28T02:09:00;94460.53;;;13.21;81.86
55590;BME280;41452;42.780;23.116;2023-07-28T02:11:25;94456.41;;;13.08;82.09
55590;BME280;41452;42.780;23.116;2023-07-28T02:13:51;94461.69;;;13.08;82.18
55590;BME280;41452;42.780;23.116;2023-07-28T02:16:16;94454.81;;;13.07;82.01
55590;BME280;41452;42.780;23.116;2023-07-28T02:18:41;94463.34;;;13.14;81.82
55590;BME280;41452;42.780;23.116;2023-07-28T02:21:10;94467.91;;;13.02;82.26
55590;BME280;41452;42.780;23.116;2023-07-28T02:23:35;94472.72;;;13.05;82.02
55590;BME280;41452;42.780;23.116;2023-07-28T02:26:00;94465.22;;;12.97;82.63
55590;BME280;41452;42.780;23.116;2023-07-28T02:28:26;94470.00;;;13.00;81.56
55590;BME280;41452;42.780;23.116;2023-07-28T02:30:52;94476.25;;;12.93;81.19
55590;BME280;41452;42.780;23.116;2023-07-28T02:33:17;94473.22;;;12.85;81.65
55590;BME280;41452;42.780;23.116;2023-07-28T02:35:43;94476.25;;;12.77;81.47
55590;BME280;41452;42.780;23.116;2023-07-28T02:38:08;94451.81;;;12.64;80.97
55590;BME280;41452;42.780;23.116;2023-07-28T02:40:33;94471.63;;;12.67;81.48
55590;BME280;41452;42.780;23.116;2023-07-28T02:42:59;94464.19;;;12.64;81.87
55590;BME280;41452;42.780;23.116;2023-07-28T02:45:25;94465.22;;;12.63;82.61
55590;BME280;41452;42.780;23.116;2023-07-28T02:47:50;94471.47;;;12.57;83.61
55590;BME280;41452;42.780;23.116;2023-07-28T02:50:16;94461.72;;;12.40;85.19
55590;BME280;41452;42.780;23.116;2023-07-28T02:52:41;94470.56;;;12.34;84.42
55590;BME280;41452;42.780;23.116;2023-07-28T02:55:07;94470.56;;;12.17;84.82
55590;BME280;41452;42.780;23.116;2023-07-28T02:57:33;94467.34;;;12.15;85.44
55590;BME280;41452;42.780;23.116;2023-07-28T02:59:58;94473.84;;;12.24;85.35
55590;BME280;41452;42.780;23.116;2023-07-28T03:02:24;94468.25;;;12.21;84.78
55590;BME280;41452;42.780;23.116;2023-07-28T03:04:49;94470.28;;;12.18;84.61
55590;BME280;41452;42.780;23.116;2023-07-28T03:07:15;94468.81;;;12.23;84.61
55590;BME280;41452;42.780;23.116;2023-07-28T03:09:40;94469.28;;;12.20;84.29
55590;BME280;41452;42.780;23.116;2023-07-28T03:12:07;94471.25;;;12.12;84.95
55590;BME280;41452;42.780;23.116;2023-07-28T03:14:33;94472.22;;;12.06;85.39
55590;BME280;41452;42.780;23.116;2023-07-28T03:16:58;94476.19;;;12.09;84.86
55590;BME280;41452;42.780;23.116;2023-07-28T03:19:23;94465.91;;;12.07;83.87
55590;BME280;41452;42.780;23.116;2023-07-28T03:21:49;94484.41;;;12.12;84.20
55590;BME280;41452;42.780;23.116;2023-07-28T03:24:14;94483.19;;;12.03;84.72
55590;BME280;41452;42.780;23.116;2023-07-28T03:26:40;94461.25;;;11.86;84.58
55590;BME280;41452;42.780;23.116;2023-07-28T03:29:05;94481.53;;;11.85;85.62
55590;BME280;41452;42.780;23.116;2023-07-28T03:31:31;94481.41;;;11.92;85.40
55590;BME280;41452;42.780;23.116;2023-07-28T03:33:56;94486.06;;;11.90;85.24
55590;BME280;41452;42.780;23.116;2023-07-28T03:36:22;94495.94;;;11.83;85.75
55590;BME280;41452;42.780;23.116;2023-07-28T03:38:47;94461.81;;;11.59;86.07
55590;BME280;41452;42.780;23.116;2023-07-28T03:41:13;94493.41;;;11.88;85.62
55590;BME280;41452;42.780;23.116;2023-07-28T03:43:39;94492.06;;;11.85;86.00
55590;BME280;41452;42.780;23.116;2023-07-28T03:46:05;94496.50;;;11.85;86.31
55590;BME280;41452;42.780;23.116;2023-07-28T03:48:30;94492.63;;;11.87;85.72
55590;BME280;41452;42.780;23.116;2023-07-28T03:50:56;94490.44;;;11.84;86.33
55590;BME280;41452;42.780;23.116;2023-07-28T03:53:21;94493.16;;;11.89;86.42
55590;BME280;41452;42.780;23.116;2023-07-28T03:55:47;94498.66;;;11.88;86.89
55590;BME280;41452;42.780;23.116;2023-07-28T03:58:12;94495.94;;;11.83;87.11
55590;BME280;41452;42.780;23.116;2023-07-28T04:00:37;94500.19;;;11.84;87.23
55590;BME280;41452;42.780;23.116;2023-07-28T04:03:03;94501.06;;;11.89;87.46
55590;BME280;41452;42.780;23.116;2023-07-28T04:05:28;94494.34;;;11.82;88.24
55590;BME280;41452;42.780;23.116;2023-07-28T04:07:54;94497.44;;;11.78;88.66
55590;BME280;41452;42.780;23.116;2023-07-28T04:10:19;94491.13;;;11.79;89.45
55590;BME280;41452;42.780;23.116;2023-07-28T04:12:45;94494.91;;;11.84;90.14
55590;BME280;41452;42.780;23.116;2023-07-28T04:15:10;94495.22;;;11.99;89.98
55590;BME280;41452;42.780;23.116;2023-07-28T04:17:35;94494.41;;;11.98;90.62
55590;BME280;41452;42.780;23.116;2023-07-28T04:20:01;94395.88;;;11.37;91.42
55590;BME280;41452;42.780;23.116;2023-07-28T04:22:27;94479.28;;;12.06;91.70
55590;BME280;41452;42.780;23.116;2023-07-28T04:24:53;94498.69;;;12.16;91.56
55590;BME280;41452;42.780;23.116;2023-07-28T04:27:19;94488.97;;;12.17;92.32
55590;BME280;41452;42.780;23.116;2023-07-28T04:29:44;94489.47;;;12.31;91.82
55590;BME280;41452;42.780;23.116;2023-07-28T04:32:10;94470.06;;;12.20;92.36
55590;BME280;41452;42.780;23.116;2023-07-28T04:34:36;94503.03;;;12.40;92.92
55590;BME280;41452;42.780;23.116;2023-07-28T04:37:01;94492.69;;;12.50;92.67
55590;BME280;41452;42.780;23.116;2023-07-28T04:39:27;94500.38;;;12.51;93.75
55590;BME280;41452;42.780;23.116;2023-07-28T04:41:52;94502.13;;;12.63;93.55
55590;BME280;41452;42.780;23.116;2023-07-28T04:44:18;94502.75;;;12.70;93.96
55590;BME280;41452;42.780;23.116;2023-07-28T04:46:44;94507.88;;;12.77;94.06
55590;BME280;41452;42.780;23.116;2023-07-28T04:49:12;94498.53;;;12.86;94.25
55590;BME280;41452;42.780;23.116;2023-07-28T04:51:38;94497.16;;;13.00;93.38
55590;BME280;41452;42.780;23.116;2023-07-28T04:54:03;94453.09;;;12.79;92.88
55590;BME280;41452;42.780;23.116;2023-07-28T04:56:28;94501.44;;;13.23;92.60
55590;BME280;41452;42.780;23.116;2023-07-28T04:58:54;94497.94;;;13.35;92.08
55590;BME280;41452;42.780;23.116;2023-07-28T05:01:19;94501.13;;;13.37;92.08
55590;BME280;41452;42.780;23.116;2023-07-28T05:03:44;94489.91;;;13.46;91.34
55590;BME280;41452;42.780;23.116;2023-07-28T05:06:10;94492.06;;;13.49;90.04
55590;BME280;41452;42.780;23.116;2023-07-28T05:08:35;94492.38;;;13.53;89.91
55590;BME280;41452;42.780;23.116;2023-07-28T05:11:01;94483.28;;;13.66;89.20
55590;BME280;41452;42.780;23.116;2023-07-28T05:13:27;94468.94;;;13.57;90.67
55590;BME280;41452;42.780;23.116;2023-07-28T05:15:52;94464.69;;;13.34;94.55
55590;BME280;41452;42.780;23.116;2023-07-28T05:18:17;94492.88;;;13.72;91.76
55590;BME280;41452;42.780;23.116;2023-07-28T05:20:43;94495.50;;;13.94;90.80
55590;BME280;41452;42.780;23.116;2023-07-28T05:23:08;94495.13;;;14.07;89.73
55590;BME280;41452;42.780;23.116;2023-07-28T05:25:34;94485.66;;;14.12;89.28
55590;BME280;41452;42.780;23.116;2023-07-28T05:27:59;94488.66;;;14.20;89.32
55590;BME280;41452;42.780;23.116;2023-07-28T05:30:24;94500.59;;;14.28;88.38
55590;BME280;41452;42.780;23.116;2023-07-28T05:32:50;94484.75;;;14.28;88.21
55590;BME280;41452;42.780;23.116;2023-07-28T05:35:15;94496.03;;;14.45;87.34
55590;BME280;41452;42.780;23.116;2023-07-28T05:37:41;94489.53;;;14.31;88.03
55590;BME280;41452;42.780;23.116;2023-07-28T05:40:06;94491.28;;;14.48;86.60
55590;BME280;41452;42.780;23.116;2023-07-28T05:42:32;94495.81;;;14.52;86.49
55590;BME280;41452;42.780;23.116;2023-07-28T05:44:59;94479.78;;;14.59;84.97
55590;BME280;41452;42.780;23.116;2023-07-28T05:47:24;94480.09;;;14.62;86.40
55590;BME280;41452;42.780;23.116;2023-07-28T05:49:51;94474.63;;;14.74;86.19
55590;BME280;41452;42.780;23.116;2023-07-28T05:52:19;94478.88;;;14.75;85.97
55590;BME280;41452;42.780;23.116;2023-07-28T05:54:44;94467.25;;;14.81;86.05
55590;BME280;41452;42.780;23.116;2023-07-28T05:57:09;94452.47;;;14.80;84.68
55590;BME280;41452;42.780;23.116;2023-07-28T05:59:35;94471.38;;;15.05;84.80
55590;BME280;41452;42.780;23.116;2023-07-28T06:02:00;94457.09;;;15.00;83.82
55590;BME280;41452;42.780;23.116;2023-07-28T06:04:26;94471.25;;;15.21;83.57
55590;BME280;41452;42.780;23.116;2023-07-28T06:06:51;94463.84;;;15.24;83.00
55590;BME280;41452;42.780;23.116;2023-07-28T06:09:17;94469.34;;;15.17;83.47
55590;BME280;41452;42.780;23.116;2023-07-28T06:11:42;94472.34;;;15.31;83.08
55590;BME280;41452;42.780;23.116;2023-07-28T06:14:07;94472.31;;;15.26;85.01
55590;BME280;41452;42.780;23.116;2023-07-28T06:16:33;94468.16;;;15.35;83.28
55590;BME280;41452;42.780;23.116;2023-07-28T06:18:58;94473.44;;;15.40;84.15
55590;BME280;41452;42.780;23.116;2023-07-28T06:21:24;94478.53;;;15.47;82.89
55590;BME280;41452;42.780;23.116;2023-07-28T06:23:49;94465.38;;;15.62;80.01
55590;BME280;41452;42.780;23.116;2023-07-28T06:26:14;94466.38;;;15.56;81.13
55590;BME280;41452;42.780;23.116;2023-07-28T06:28:40;94459.78;;;15.58;81.92
55590;BME280;41452;42.780;23.116;2023-07-28T06:31:05;94464.56;;;15.56;83.26
55590;BME280;41452;42.780;23.116;2023-07-28T06:33:31;94461.50;;;15.80;83.89
55590;BME280;41452;42.780;23.116;2023-07-28T06:35:56;94467.59;;;15.86;80.44
55590;BME280;41452;42.780;23.116;2023-07-28T06:38:22;94472.16;;;16.01;80.53
55590;BME280;41452;42.780;23.116;2023-07-28T06:40:47;94451.25;;;16.04;79.66
55590;BME280;41452;42.780;23.116;2023-07-28T06:43:13;94459.47;;;16.18;76.57
55590;BME280;41452;42.780;23.116;2023-07-28T06:45:38;94464.00;;;16.28;76.98
55590;BME280;41452;42.780;23.116;2023-07-28T06:48:04;94467.19;;;16.35;76.50
55590;BME280;41452;42.780;23.116;2023-07-28T06:50:29;94463.75;;;16.45;75.46
55590;BME280;41452;42.780;23.116;2023-07-28T06:52:55;94442.53;;;16.40;75.07
55590;BME280;41452;42.780;23.116;2023-07-28T06:55:20;94462.16;;;16.59;75.75
55590;BME280;41452;42.780;23.116;2023-07-28T06:57:47;94459.50;;;16.69;74.50
55590;BME280;41452;42.780;23.116;2023-07-28T07:00:13;94461.63;;;16.67;76.09
55590;BME280;41452;42.780;23.116;2023-07-28T07:02:40;94460.03;;;16.82;75.05
55590;BME280;41452;42.780;23.116;2023-07-28T07:05:05;94453.44;;;16.95;73.11
55590;BME280;41452;42.780;23.116;2023-07-28T07:07:32;94462.47;;;16.94;74.91
55590;BME280;41452;42.780;23.116;2023-07-28T07:09:57;94470.13;;;17.05;74.83
55590;BME280;41452;42.780;23.116;2023-07-28T07:12:22;94458.44;;;17.17;73.17
55590;BME280;41452;42.780;23.116;2023-07-28T07:14:48;94456.84;;;17.26;72.74
55590;BME280;41452;42.780;23.116;2023-07-28T07:17:13;94454.97;;;17.32;72.69
55590;BME280;41452;42.780;23.116;2023-07-28T07:19:39;94458.44;;;17.32;72.49
55590;BME280;41452;42.780;23.116;2023-07-28T07:22:05;94468.47;;;17.45;72.96
55590;BME280;41452;42.780;23.116;2023-07-28T07:24:31;94458.38;;;17.47;72.87
55590;BME280;41452;42.780;23.116;2023-07-28T07:26:56;94468.69;;;17.59;72.25
55590;BME280;41452;42.780;23.116;2023-07-28T07:29:21;94463.03;;;17.76;70.61
55590;BME280;41452;42.780;23.116;2023-07-28T07:31:47;94471.56;;;17.73;71.65
55590;BME280;41452;42.780;23.116;2023-07-28T07:34:12;94474.72;;;17.80;70.70
55590;BME280;41452;42.780;23.116;2023-07-28T07:36:38;94472.59;;;17.93;70.65
55590;BME280;41452;42.780;23.116;2023-07-28T07:39:05;94452.38;;;17.92;70.00
55590;BME280;41452;42.780;23.116;2023-07-28T07:41:31;94477.25;;;18.11;69.78
55590;BME280;41452;42.780;23.116;2023-07-28T07:43:56;94472.41;;;18.23;69.71
55590;BME280;41452;42.780;23.116;2023-07-28T07:46:22;94475.53;;;18.36;70.47
55590;BME280;41452;42.780;23.116;2023-07-28T07:48:48;94480.22;;;18.49;68.12
55590;BME280;41452;42.780;23.116;2023-07-28T07:51:14;94474.81;;;18.65;67.29
55590;BME280;41452;42.780;23.116;2023-07-28T07:53:39;94476.59;;;18.74;65.73
55590;BME280;41452;42.780;23.116;2023-07-28T07:56:06;94478.47;;;18.69;66.61
55590;BME280;41452;42.780;23.116;2023-07-28T07:58:32;94477.34;;;18.80;65.81
55590;BME280;41452;42.780;23.116;2023-07-28T08:00:57;94475.72;;;18.89;63.84
55590;BME280;41452;42.780;23.116;2023-07-28T08:03:23;94470.25;;;19.05;65.09
55590;BME280;41452;42.780;23.116;2023-07-28T08:05:50;94474.91;;;19.18;67.32
55590;BME280;41452;42.780;23.116;2023-07-28T08:08:15;94468.72;;;19.28;65.45
55590;BME280;41452;42.780;23.116;2023-07-28T08:10:45;94465.41;;;19.36;64.71
55590;BME280;41452;42.780;23.116;2023-07-28T08:13:11;94468.72;;;19.28;63.20
55590;BME280;41452;42.780;23.116;2023-07-28T08:15:36;94455.34;;;19.57;62.97
55590;BME280;41452;42.780;23.116;2023-07-28T08:18:02;94456.78;;;19.49;61.13
55590;BME280;41452;42.780;23.116;2023-07-28T08:20:27;94454.00;;;19.60;62.09
55590;BME280;41452;42.780;23.116;2023-07-28T08:22:53;94438.25;;;19.63;65.82
55590;BME280;41452;42.780;23.116;2023-07-28T08:25:18;94443.13;;;19.80;62.56
55590;BME280;41452;42.780;23.116;2023-07-28T08:27:44;94435.94;;;20.00;63.61
55590;BME280;41452;42.780;23.116;2023-07-28T08:30:10;94448.72;;;20.22;62.13
55590;BME280;41452;42.780;23.116;2023-07-28T08:32:35;94451.88;;;20.24;61.13
55590;BME280;41452;42.780;23.116;2023-07-28T08:35:01;94451.44;;;20.36;61.60
55590;BME280;41452;42.780;23.116;2023-07-28T08:37:28;94421.09;;;20.31;60.78
55590;BME280;41452;42.780;23.116;2023-07-28T08:39:53;94456.28;;;20.72;59.62
55590;BME280;41452;42.780;23.116;2023-07-28T08:42:21;94454.13;;;20.74;60.50
55590;BME280;41452;42.780;23.116;2023-07-28T08:44:46;94428.22;;;20.74;60.75
55590;BME280;41452;42.780;23.116;2023-07-28T08:47:12;94436.38;;;20.97;58.20
55590;BME280;41452;42.780;23.116;2023-07-28T08:49:38;94451.47;;;21.20;56.05
55590;BME280;41452;42.780;23.116;2023-07-28T08:52:04;94442.38;;;21.21;55.45
55590;BME280;41452;42.780;23.116;2023-07-28T08:54:30;94438.41;;;21.33;55.49
55590;BME280;41452;42.780;23.116;2023-07-28T08:56:59;94436.00;;;21.50;56.16
55590;BME280;41452;42.780;23.116;2023-07-28T08:59:30;94424.09;;;21.56;54.00
55590;BME280;41452;42.780;23.116;2023-07-28T09:01:57;94426.47;;;21.72;54.90
55590;BME280;41452;42.780;23.116;2023-07-28T09:04:24;94410.34;;;21.77;52.88
55590;BME280;41452;42.780;23.116;2023-07-28T09:06:51;94412.50;;;21.89;55.98
55590;BME280;41452;42.780;23.116;2023-07-28T09:09:21;94397.53;;;22.01;52.87
55590;BME280;41452;42.780;23.116;2023-07-28T09:11:54;94425.63;;;22.13;56.20
55590;BME280;41452;42.780;23.116;2023-07-28T09:14:21;94419.56;;;22.35;53.49
55590;BME280;41452;42.780;23.116;2023-07-28T09:16:49;94413.53;;;22.52;54.09
55590;BME280;41452;42.780;23.116;2023-07-28T09:19:15;94406.72;;;22.68;53.27
55590;BME280;41452;42.780;23.116;2023-07-28T09:21:43;94392.31;;;22.78;51.79
55590;BME280;41452;42.780;23.116;2023-07-28T09:24:11;94385.13;;;22.87;52.61
55590;BME280;41452;42.780;23.116;2023-07-28T09:29:12;94388.09;;;23.08;49.44
55590;BME280;41452;42.780;23.116;2023-07-28T09:31:37;94387.03;;;23.18;49.67
55590;BME280;41452;42.780;23.116;2023-07-28T09:34:06;94384.56;;;23.30;48.43
55590;BME280;41452;42.780;23.116;2023-07-28T09:36:32;94371.19;;;23.39;48.05
55590;BME280;41452;42.780;23.116;2023-07-28T09:38:58;94359.38;;;23.40;50.56
55590;BME280;41452;42.780;23.116;2023-07-28T09:41:24;94369.84;;;23.68;48.63
55590;BME280;41452;42.780;23.116;2023-07-28T09:43:50;94370.63;;;23.60;46.99
55590;BME280;41452;42.780;23.116;2023-07-28T09:46:17;94361.81;;;23.68;47.67
55590;BME280;41452;42.780;23.116;2023-07-28T09:48:45;94357.78;;;23.88;45.80
55590;BME280;41452;42.780;23.116;2023-07-28T09:51:16;94359.81;;;23.82;46.25
55590;BME280;41452;42.780;23.116;2023-07-28T09:53:46;94362.50;;;24.00;46.88
55590;BME280;41452;42.780;23.116;2023-07-28T09:56:16;94355.59;;;24.16;44.79
55590;BME280;41452;42.780;23.116;2023-07-28T09:58:49;94356.84;;;24.19;47.34
55590;BME280;41452;42.780;23.116;2023-07-28T10:01:16;94366.63;;;24.41;47.22
55590;BME280;41452;42.780;23.116;2023-07-28T10:03:42;94358.44;;;24.55;45.69
55590;BME280;41452;42.780;23.116;2023-07-28T10:06:08;94359.53;;;24.62;42.91
55590;BME280;41452;42.780;23.116;2023-07-28T10:08:34;94354.63;;;24.64;43.54
55590;BME280;41452;42.780;23.116;2023-07-28T10:11:01;94341.81;;;24.70;43.29
55590;BME280;41452;42.780;23.116;2023-07-28T10:13:27;94347.31;;;24.91;45.69
55590;BME280;41452;42.780;23.116;2023-07-28T10:15:53;94307.47;;;24.93;42.00
55590;BME280;41452;42.780;23.116;2023-07-28T10:18:22;94308.84;;;25.08;41.13
55590;BME280;41452;42.780;23.116;2023-07-28T10:20:47;94332.94;;;25.34;39.39
55590;BME280;41452;42.780;23.116;2023-07-28T10:23:22;94340.69;;;25.36;40.45
55590;BME280;41452;42.780;23.116;2023-07-28T10:25:55;94324.81;;;25.43;43.10
55590;BME280;41452;42.780;23.116;2023-07-28T10:28:30;94338.50;;;25.59;39.08
55590;BME280;41452;42.780;23.116;2023-07-28T10:31:01;94318.53;;;25.60;38.46
55590;BME280;41452;42.780;23.116;2023-07-28T10:33:34;94326.97;;;25.79;38.87
55590;BME280;41452;42.780;23.116;2023-07-28T10:36:17;94328.63;;;25.93;39.55
55590;BME280;41452;42.780;23.116;2023-07-28T10:38:43;94287.28;;;25.76;39.82
55590;BME280;41452;42.780;23.116;2023-07-28T10:41:13;94323.84;;;26.20;39.16
55590;BME280;41452;42.780;23.116;2023-07-28T10:43:39;94328.06;;;26.29;43.50
55590;BME280;41452;42.780;23.116;2023-07-28T10:46:07;94289.84;;;26.15;43.04
55590;BME280;41452;42.780;23.116;2023-07-28T10:48:35;94313.41;;;26.39;41.46
55590;BME280;41452;42.780;23.116;2023-07-28T10:51:00;94319.88;;;26.38;37.49
55590;BME280;41452;42.780;23.116;2023-07-28T10:53:26;94300.47;;;26.11;38.53
55590;BME280;41452;42.780;23.116;2023-07-28T10:55:52;94315.06;;;26.31;36.78
55590;BME280;41452;42.780;23.116;2023-07-28T10:58:18;94308.22;;;26.34;37.77
55590;BME280;41452;42.780;23.116;2023-07-28T11:00:45;94305.00;;;26.41;39.11
55590;BME280;41452;42.780;23.116;2023-07-28T11:03:12;94302.00;;;26.54;37.88
55590;BME280;41452;42.780;23.116;2023-07-28T11:05:38;94304.66;;;26.63;37.77
55590;BME280;41452;42.780;23.116;2023-07-28T11:08:05;94297.13;;;26.69;38.30
55590;BME280;41452;42.780;23.116;2023-07-28T11:10:33;94306.13;;;26.85;40.70
55590;BME280;41452;42.780;23.116;2023-07-28T11:13:02;94291.69;;;27.02;40.10
55590;BME280;41452;42.780;23.116;2023-07-28T11:15:28;94290.66;;;27.07;37.57
55590;BME280;41452;42.780;23.116;2023-07-28T11:17:54;94271.88;;;26.73;36.96
55590;BME280;41452;42.780;23.116;2023-07-28T11:20:24;94276.28;;;26.90;37.75
55590;BME280;41452;42.780;23.116;2023-07-28T11:23:01;94282.34;;;27.00;37.19
55590;BME280;41452;42.780;23.116;2023-07-28T11:25:28;94261.13;;;26.98;37.56
55590;BME280;41452;42.780;23.116;2023-07-28T11:27:55;94284.16;;;27.08;36.91
55590;BME280;41452;42.780;23.116;2023-07-28T11:30:22;94266.41;;;27.19;35.93
55590;BME280;41452;42.780;23.116;2023-07-28T11:32:50;94264.84;;;27.30;37.75
55590;BME280;41452;42.780;23.116;2023-07-28T11:35:18;94260.25;;;27.43;37.14
55590;BME280;41452;42.780;23.116;2023-07-28T11:37:46;94254.16;;;27.46;38.34
55590;BME280;41452;42.780;23.116;2023-07-28T11:40:14;94262.22;;;27.59;38.77
55590;BME280;41452;42.780;23.116;2023-07-28T11:45:13;94259.19;;;27.73;35.58
55590;BME280;41452;42.780;23.116;2023-07-28T11:47:38;94263.91;;;27.76;33.21
55590;BME280;41452;42.780;23.116;2023-07-28T11:50:04;94243.66;;;27.69;35.79
55590;BME280;41452;42.780;23.116;2023-07-28T11:52:35;94261.59;;;27.90;38.00
55590;BME280;41452;42.780;23.116;2023-07-28T11:55:01;94264.03;;;27.67;36.74
55590;BME280;41452;42.780;23.116;2023-07-28T11:57:29;94267.03;;;27.78;36.18
55590;BME280;41452;42.780;23.116;2023-07-28T11:59:59;94265.91;;;27.91;39.14
55590;BME280;41452;42.780;23.116;2023-07-28T12:02:28;94249.56;;;28.00;36.02
55590;BME280;41452;42.780;23.116;2023-07-28T12:04:54;94249.34;;;27.93;40.38
55590;BME280;41452;42.780;23.116;2023-07-28T12:07:31;94248.78;;;27.99;35.35
55590;BME280;41452;42.780;23.116;2023-07-28T12:10:02;94249.22;;;28.01;38.86
55590;BME280;41452;42.780;23.116;2023-07-28T12:12:31;94205.50;;;27.96;35.66
55590;BME280;41452;42.780;23.116;2023-07-28T12:14:57;94226.69;;;28.10;33.89
55590;BME280;41452;42.780;23.116;2023-07-28T12:17:30;94243.78;;;28.14;37.33
55590;BME280;41452;42.780;23.116;2023-07-28T12:20:02;94249.88;;;28.11;39.13
55590;BME280;41452;42.780;23.116;2023-07-28T12:22:43;94199.88;;;27.88;36.86
55590;BME280;41452;42.780;23.116;2023-07-28T12:25:10;94230.47;;;27.80;35.24
55590;BME280;41452;42.780;23.116;2023-07-28T12:27:36;94227.09;;;27.96;36.06
55590;BME280;41452;42.780;23.116;2023-07-28T12:30:02;94225.63;;;27.98;38.23
55590;BME280;41452;42.780;23.116;2023-07-28T12:32:28;94232.81;;;27.54;34.89
55590;BME280;41452;42.780;23.116;2023-07-28T12:34:53;94233.88;;;27.77;36.13
55590;BME280;41452;42.780;23.116;2023-07-28T12:37:19;94229.31;;;27.65;36.98
55590;BME280;41452;42.780;23.116;2023-07-28T12:39:45;94215.91;;;27.69;37.92
55590;BME280;41452;42.780;23.116;2023-07-28T12:42:11;94214.41;;;27.84;36.90
55590;BME280;41452;42.780;23.116;2023-07-28T12:44:38;94212.38;;;27.93;38.52
55590;BME280;41452;42.780;23.116;2023-07-28T12:47:04;94215.72;;;28.02;35.85
55590;BME280;41452;42.780;23.116;2023-07-28T12:49:30;94206.84;;;28.02;38.21
55590;BME280;41452;42.780;23.116;2023-07-28T12:51:58;94203.09;;;28.06;38.28
55590;BME280;41452;42.780;23.116;2023-07-28T12:54:24;94181.00;;;27.88;39.12
55590;BME280;41452;42.780;23.116;2023-07-28T12:56:50;94201.97;;;28.08;38.83